sensor_id;sensor_type;location;lat;lon;timestamp;temperature;humidity
11764;DHT22;5939;56.522;14.950;2022-11-21T00:00:33;2.50;99.90
11764;DHT22;5939;56.522;14.950;2022-11-21T00:03:00;2.50;99.90
11764;DHT22;5939;56.522;14.950;2022-11-21T00:05:27;2.50;99.90
11764;DHT22;5939;56.522;14.950;2022-11-21T00:07:53;2.50;99.90
11764;DHT22;5939;56.522;14.950;2022-11-21T00:10:19;2.50;99.90
11764;DHT22;5939;56.522;14.950;2022-11-21T00:12:45;2.50;99.90
11764;DHT22;5939;56.522;14.950;2022-11-21T00:15:10;2.50;99.90
11764;DHT22;5939;56.522;14.950;2022-11-21T00:17:36;2.50;99.90
11764;DHT22;5939;56.522;14.950;2022-11-21T00:20:02;2.50;99.90
11764;DHT22;5939;56.522;14.950;2022-11-21T00:22:27;2.50;99.90
11764;DHT22;5939;56.522;14.950;2022-11-21T00:24:53;2.50;99.90
11764;DHT22;5939;56.522;14.950;2022-11-21T00:27:18;2.50;99.90
11764;DHT22;5939;56.522;14.950;2022-11-21T00:29:44;2.50;99.90
11764;DHT22;5939;56.522;14.950;2022-11-21T00:32:10;2.50;99.90
11764;DHT22;5939;56.522;14.950;2022-11-21T00:34:35;2.50;99.90
11764;DHT22;5939;56.522;14.950;2022-11-21T00:37:01;2.50;99.90
11764;DHT22;5939;56.522;14.950;2022-11-21T00:39:26;2.50;99.90
11764;DHT22;5939;56.522;14.950;2022-11-21T00:41:52;2.50;99.90
11764;DHT22;5939;56.522;14.950;2022-11-21T00:44:18;2.50;99.90
11764;DHT22;5939;56.522;14.950;2022-11-21T00:46:43;2.50;99.90
11764;DHT22;5939;56.522;14.950;2022-11-21T00:49:09;2.50;99.90
11764;DHT22;5939;56.522;14.950;2022-11-21T00:51:35;2.50;99.90
11764;DHT22;5939;56.522;14.950;2022-11-21T00:54:00;2.40;99.90
11764;DHT22;5939;56.522;14.950;2022-11-21T00:56:26;2.50;99.90
11764;DHT22;5939;56.522;14.950;2022-11-21T00:58:51;2.50;99.90
11764;DHT22;5939;56.522;14.950;2022-11-21T01:01:17;2.50;99.90
11764;DHT22;5939;56.522;14.950;2022-11-21T01:03:43;2.40;99.90
11764;DHT22;5939;56.522;14.950;2022-11-21T01:06:12;2.40;99.90
11764;DHT22;5939;56.522;14.950;2022-11-21T01:08:40;2.40;99.90
11764;DHT22;5939;56.522;14.950;2022-11-21T01:11:11;2.40;99.90
11764;DHT22;5939;56.522;14.950;2022-11-21T01:13:38;2.40;99.90
11764;DHT22;5939;56.522;14.950;2022-11-21T01:16:24;2.40;99.90
11764;DHT22;5939;56.522;14.950;2022-11-21T01:18:50;2.40;99.90
11764;DHT22;5939;56.522;14.950;2022-11-21T01:21:20;2.40;99.90
11764;DHT22;5939;56.522;14.950;2022-11-21T01:23:46;2.40;99.90
11764;DHT22;5939;56.522;14.950;2022-11-21T01:26:15;2.40;99.90
11764;DHT22;5939;56.522;14.950;2022-11-21T01:28:41;2.40;99.90
11764;DHT22;5939;56.522;14.950;2022-11-21T01:31:08;2.40;99.90
11764;DHT22;5939;56.522;14.950;2022-11-21T01:33:35;2.40;99.90
11764;DHT22;5939;56.522;14.950;2022-11-21T01:36:15;2.40;99.90
11764;DHT22;5939;56.522;14.950;2022-11-21T01:38:44;2.40;99.90
11764;DHT22;5939;56.522;14.950;2022-11-21T01:41:12;2.40;99.90
11764;DHT22;5939;56.522;14.950;2022-11-21T01:43:38;2.40;99.90
11764;DHT22;5939;56.522;14.950;2022-11-21T01:51:32;2.30;99.90
11764;DHT22;5939;56.522;14.950;2022-11-21T01:56:33;2.30;99.90
11764;DHT22;5939;56.522;14.950;2022-11-21T01:59:01;2.30;99.90
11764;DHT22;5939;56.522;14.950;2022-11-21T02:01:30;2.30;99.90
11764;DHT22;5939;56.522;14.950;2022-11-21T02:03:57;2.30;99.90
11764;DHT22;5939;56.522;14.950;2022-11-21T02:06:24;2.30;99.90
11764;DHT22;5939;56.522;14.950;2022-11-21T02:08:50;2.30;99.90
11764;DHT22;5939;56.522;14.950;2022-11-21T02:11:23;2.30;99.90
11764;DHT22;5939;56.522;14.950;2022-11-21T02:13:51;2.30;99.90
11764;DHT22;5939;56.522;14.950;2022-11-21T02:16:17;2.30;99.90
11764;DHT22;5939;56.522;14.950;2022-11-21T02:18:42;2.30;99.90
11764;DHT22;5939;56.522;14.950;2022-11-21T02:23:49;2.30;99.90
11764;DHT22;5939;56.522;14.950;2022-11-21T02:26:16;2.20;99.90
11764;DHT22;5939;56.522;14.950;2022-11-21T02:28:42;2.30;99.90
11764;DHT22;5939;56.522;14.950;2022-11-21T02:31:08;2.20;99.90
11764;DHT22;5939;56.522;14.950;2022-11-21T02:33:34;2.20;99.90
11764;DHT22;5939;56.522;14.950;2022-11-21T02:36:01;2.20;99.90
11764;DHT22;5939;56.522;14.950;2022-11-21T02:38:34;2.20;99.90
11764;DHT22;5939;56.522;14.950;2022-11-21T02:41:27;2.20;99.90
11764;DHT22;5939;56.522;14.950;2022-11-21T02:44:11;2.20;99.90
11764;DHT22;5939;56.522;14.950;2022-11-21T02:46:50;2.20;99.90
11764;DHT22;5939;56.522;14.950;2022-11-21T02:52:19;2.20;99.90
11764;DHT22;5939;56.522;14.950;2022-11-21T02:54:45;2.10;99.90
11764;DHT22;5939;56.522;14.950;2022-11-21T02:57:11;2.10;99.90
11764;DHT22;5939;56.522;14.950;2022-11-21T02:59:36;2.20;99.90
11764;DHT22;5939;56.522;14.950;2022-11-21T03:02:02;2.10;99.90
11764;DHT22;5939;56.522;14.950;2022-11-21T03:04:27;2.10;99.90
11764;DHT22;5939;56.522;14.950;2022-11-21T03:06:54;2.10;99.90
11764;DHT22;5939;56.522;14.950;2022-11-21T03:09:19;2.10;99.90
11764;DHT22;5939;56.522;14.950;2022-11-21T03:11:45;2.10;99.90
11764;DHT22;5939;56.522;14.950;2022-11-21T03:14:10;2.10;99.90
11764;DHT22;5939;56.522;14.950;2022-11-21T03:16:36;2.10;99.90
11764;DHT22;5939;56.522;14.950;2022-11-21T03:19:02;2.10;99.90
11764;DHT22;5939;56.522;14.950;2022-11-21T03:21:28;2.10;99.90
11764;DHT22;5939;56.522;14.950;2022-11-21T03:23:53;2.10;99.90
11764;DHT22;5939;56.522;14.950;2022-11-21T03:26:19;2.10;99.90
11764;DHT22;5939;56.522;14.950;2022-11-21T03:28:44;2.10;99.90
11764;DHT22;5939;56.522;14.950;2022-11-21T03:31:10;2.10;99.90
11764;DHT22;5939;56.522;14.950;2022-11-21T03:33:36;2.10;99.90
11764;DHT22;5939;56.522;14.950;2022-11-21T03:36:01;2.00;99.90
11764;DHT22;5939;56.522;14.950;2022-11-21T03:38:27;2.00;99.90
11764;DHT22;5939;56.522;14.950;2022-11-21T03:40:52;2.10;99.90
11764;DHT22;5939;56.522;14.950;2022-11-21T03:43:18;2.10;99.90
11764;DHT22;5939;56.522;14.950;2022-11-21T03:45:47;2.10;99.90
11764;DHT22;5939;56.522;14.950;2022-11-21T03:48:13;2.00;99.90
11764;DHT22;5939;56.522;14.950;2022-11-21T03:50:42;2.00;99.90
11764;DHT22;5939;56.522;14.950;2022-11-21T03:53:08;2.00;99.90
11764;DHT22;5939;56.522;14.950;2022-11-21T03:55:33;2.00;99.90
11764;DHT22;5939;56.522;14.950;2022-11-21T03:57:59;2.00;99.90
11764;DHT22;5939;56.522;14.950;2022-11-21T04:00:25;2.00;99.90
11764;DHT22;5939;56.522;14.950;2022-11-21T04:02:51;2.00;99.90
11764;DHT22;5939;56.522;14.950;2022-11-21T04:05:16;2.00;99.90
11764;DHT22;5939;56.522;14.950;2022-11-21T04:07:42;2.00;99.90
11764;DHT22;5939;56.522;14.950;2022-11-21T04:10:08;2.00;99.90
11764;DHT22;5939;56.522;14.950;2022-11-21T04:12:34;2.00;99.90
11764;DHT22;5939;56.522;14.950;2022-11-21T04:14:59;2.00;99.90
11764;DHT22;5939;56.522;14.950;2022-11-21T04:17:25;2.00;99.90
11764;DHT22;5939;56.522;14.950;2022-11-21T04:19:50;2.00;99.90
11764;DHT22;5939;56.522;14.950;2022-11-21T04:22:16;2.00;99.90
11764;DHT22;5939;56.522;14.950;2022-11-21T04:24:41;2.00;99.90
11764;DHT22;5939;56.522;14.950;2022-11-21T04:27:07;2.00;99.90
11764;DHT22;5939;56.522;14.950;2022-11-21T04:29:33;2.00;99.90
11764;DHT22;5939;56.522;14.950;2022-11-21T04:31:58;2.00;99.90
11764;DHT22;5939;56.522;14.950;2022-11-21T04:34:24;2.00;99.90
11764;DHT22;5939;56.522;14.950;2022-11-21T04:36:49;2.00;99.90
11764;DHT22;5939;56.522;14.950;2022-11-21T04:39:15;2.00;99.90
11764;DHT22;5939;56.522;14.950;2022-11-21T04:41:41;2.00;99.90
11764;DHT22;5939;56.522;14.950;2022-11-21T04:44:06;1.90;99.90
11764;DHT22;5939;56.522;14.950;2022-11-21T04:46:32;1.90;99.90
11764;DHT22;5939;56.522;14.950;2022-11-21T04:48:57;2.00;99.90
11764;DHT22;5939;56.522;14.950;2022-11-21T04:51:23;1.90;99.90
11764;DHT22;5939;56.522;14.950;2022-11-21T04:53:49;1.90;99.90
11764;DHT22;5939;56.522;14.950;2022-11-21T04:56:14;1.90;99.90
11764;DHT22;5939;56.522;14.950;2022-11-21T04:58:42;1.90;99.90
11764;DHT22;5939;56.522;14.950;2022-11-21T05:01:09;1.90;99.90
11764;DHT22;5939;56.522;14.950;2022-11-21T05:03:35;1.90;99.90
11764;DHT22;5939;56.522;14.950;2022-11-21T05:06:01;1.90;99.90
11764;DHT22;5939;56.522;14.950;2022-11-21T05:08:26;1.90;99.90
11764;DHT22;5939;56.522;14.950;2022-11-21T05:10:52;1.90;99.90
11764;DHT22;5939;56.522;14.950;2022-11-21T05:13:40;1.80;99.90
11764;DHT22;5939;56.522;14.950;2022-11-21T05:16:06;1.80;99.90
11764;DHT22;5939;56.522;14.950;2022-11-21T05:18:32;1.80;99.90
11764;DHT22;5939;56.522;14.950;2022-11-21T05:20:57;1.80;99.90
11764;DHT22;5939;56.522;14.950;2022-11-21T05:23:25;1.80;99.90
11764;DHT22;5939;56.522;14.950;2022-11-21T05:25:50;1.80;99.90
11764;DHT22;5939;56.522;14.950;2022-11-21T05:28:16;1.80;99.90
11764;DHT22;5939;56.522;14.950;2022-11-21T05:30:41;1.80;99.90
11764;DHT22;5939;56.522;14.950;2022-11-21T05:33:07;1.80;99.90
11764;DHT22;5939;56.522;14.950;2022-11-21T05:35:33;1.80;99.90
11764;DHT22;5939;56.522;14.950;2022-11-21T05:37:58;1.70;99.90
11764;DHT22;5939;56.522;14.950;2022-11-21T05:40:24;1.80;99.90
11764;DHT22;5939;56.522;14.950;2022-11-21T05:42:50;1.70;99.90
11764;DHT22;5939;56.522;14.950;2022-11-21T05:45:34;1.70;99.90
11764;DHT22;5939;56.522;14.950;2022-11-21T05:48:00;1.70;99.90
11764;DHT22;5939;56.522;14.950;2022-11-21T05:50:26;1.70;99.90
11764;DHT22;5939;56.522;14.950;2022-11-21T05:52:51;1.70;99.90
11764;DHT22;5939;56.522;14.950;2022-11-21T05:55:17;1.70;99.90
11764;DHT22;5939;56.522;14.950;2022-11-21T05:57:43;1.70;99.90
11764;DHT22;5939;56.522;14.950;2022-11-21T06:00:08;1.70;99.90
11764;DHT22;5939;56.522;14.950;2022-11-21T06:02:34;1.70;99.90
11764;DHT22;5939;56.522;14.950;2022-11-21T06:05:18;1.60;99.90
11764;DHT22;5939;56.522;14.950;2022-11-21T06:07:44;1.60;99.90
11764;DHT22;5939;56.522;14.950;2022-11-21T06:10:10;1.60;99.90
11764;DHT22;5939;56.522;14.950;2022-11-21T06:12:35;1.60;99.90
11764;DHT22;5939;56.522;14.950;2022-11-21T06:15:01;1.60;99.90
11764;DHT22;5939;56.522;14.950;2022-11-21T06:17:26;1.60;99.90
11764;DHT22;5939;56.522;14.950;2022-11-21T06:19:52;1.60;99.90
11764;DHT22;5939;56.522;14.950;2022-11-21T06:22:18;1.60;99.90
11764;DHT22;5939;56.522;14.950;2022-11-21T06:24:43;1.50;99.90
11764;DHT22;5939;56.522;14.950;2022-11-21T06:27:09;1.50;99.90
11764;DHT22;5939;56.522;14.950;2022-11-21T06:29:34;1.50;99.90
11764;DHT22;5939;56.522;14.950;2022-11-21T06:32:00;1.50;99.90
11764;DHT22;5939;56.522;14.950;2022-11-21T06:34:26;1.50;99.90
11764;DHT22;5939;56.522;14.950;2022-11-21T06:36:51;1.50;99.90
11764;DHT22;5939;56.522;14.950;2022-11-21T06:39:17;2.00;99.90
11764;DHT22;5939;56.522;14.950;2022-11-21T06:41:43;1.50;99.90
11764;DHT22;5939;56.522;14.950;2022-11-21T06:44:16;1.50;99.90
11764;DHT22;5939;56.522;14.950;2022-11-21T06:46:42;1.50;99.90
11764;DHT22;5939;56.522;14.950;2022-11-21T06:49:07;1.40;99.90
11764;DHT22;5939;56.522;14.950;2022-11-21T06:51:33;1.40;99.90
11764;DHT22;5939;56.522;14.950;2022-11-21T06:53:59;1.40;99.90
11764;DHT22;5939;56.522;14.950;2022-11-21T06:56:28;1.40;99.90
11764;DHT22;5939;56.522;14.950;2022-11-21T06:58:54;1.40;99.90
11764;DHT22;5939;56.522;14.950;2022-11-21T07:01:20;1.40;99.90
11764;DHT22;5939;56.522;14.950;2022-11-21T07:03:46;1.40;99.90
11764;DHT22;5939;56.522;14.950;2022-11-21T07:06:11;1.40;99.90
11764;DHT22;5939;56.522;14.950;2022-11-21T07:08:37;1.40;99.90
11764;DHT22;5939;56.522;14.950;2022-11-21T07:11:07;1.40;99.90
11764;DHT22;5939;56.522;14.950;2022-11-21T07:13:33;1.40;99.90
11764;DHT22;5939;56.522;14.950;2022-11-21T07:16:01;1.40;99.90
11764;DHT22;5939;56.522;14.950;2022-11-21T07:18:27;1.30;99.90
11764;DHT22;5939;56.522;14.950;2022-11-21T07:21:00;1.30;99.90
11764;DHT22;5939;56.522;14.950;2022-11-21T07:23:27;1.30;99.90
11764;DHT22;5939;56.522;14.950;2022-11-21T07:25:53;1.30;99.90
11764;DHT22;5939;56.522;14.950;2022-11-21T07:28:18;1.30;99.90
11764;DHT22;5939;56.522;14.950;2022-11-21T07:30:44;1.30;99.90
11764;DHT22;5939;56.522;14.950;2022-11-21T07:33:10;1.30;99.90
11764;DHT22;5939;56.522;14.950;2022-11-21T07:35:35;1.30;99.90
11764;DHT22;5939;56.522;14.950;2022-11-21T07:38:02;1.30;99.90
11764;DHT22;5939;56.522;14.950;2022-11-21T07:40:28;1.30;99.90
11764;DHT22;5939;56.522;14.950;2022-11-21T07:43:00;1.30;99.90
11764;DHT22;5939;56.522;14.950;2022-11-21T07:45:26;1.30;99.90
11764;DHT22;5939;56.522;14.950;2022-11-21T07:48:03;1.30;99.90
11764;DHT22;5939;56.522;14.950;2022-11-21T07:50:29;1.30;99.90
11764;DHT22;5939;56.522;14.950;2022-11-21T07:53:00;1.30;99.90
11764;DHT22;5939;56.522;14.950;2022-11-21T07:55:26;1.20;99.90
11764;DHT22;5939;56.522;14.950;2022-11-21T08:00:24;1.20;99.90
11764;DHT22;5939;56.522;14.950;2022-11-21T08:02:50;1.30;99.90
11764;DHT22;5939;56.522;14.950;2022-11-21T08:05:15;1.20;99.90
11764;DHT22;5939;56.522;14.950;2022-11-21T08:07:41;1.20;99.90
11764;DHT22;5939;56.522;14.950;2022-11-21T08:10:07;1.30;99.90
11764;DHT22;5939;56.522;14.950;2022-11-21T08:12:32;1.30;99.90
11764;DHT22;5939;56.522;14.950;2022-11-21T08:14:58;1.30;99.90
11764;DHT22;5939;56.522;14.950;2022-11-21T08:17:27;1.30;99.90
11764;DHT22;5939;56.522;14.950;2022-11-21T08:19:52;1.30;99.90
11764;DHT22;5939;56.522;14.950;2022-11-21T08:22:18;1.30;99.90
11764;DHT22;5939;56.522;14.950;2022-11-21T08:24:43;1.30;99.90
11764;DHT22;5939;56.522;14.950;2022-11-21T08:27:09;1.20;99.90
11764;DHT22;5939;56.522;14.950;2022-11-21T08:29:35;1.20;99.90
11764;DHT22;5939;56.522;14.950;2022-11-21T08:32:00;1.20;99.90
11764;DHT22;5939;56.522;14.950;2022-11-21T08:34:26;1.20;99.90
11764;DHT22;5939;56.522;14.950;2022-11-21T08:36:55;1.20;99.90
11764;DHT22;5939;56.522;14.950;2022-11-21T08:39:21;1.20;99.90
11764;DHT22;5939;56.522;14.950;2022-11-21T08:41:46;1.20;99.90
11764;DHT22;5939;56.522;14.950;2022-11-21T08:44:30;1.20;99.90
11764;DHT22;5939;56.522;14.950;2022-11-21T08:46:56;1.20;99.90
11764;DHT22;5939;56.522;14.950;2022-11-21T08:49:22;1.20;99.90
11764;DHT22;5939;56.522;14.950;2022-11-21T08:51:48;1.20;99.90
11764;DHT22;5939;56.522;14.950;2022-11-21T08:54:21;1.20;99.90
11764;DHT22;5939;56.522;14.950;2022-11-21T08:56:47;1.20;99.90
11764;DHT22;5939;56.522;14.950;2022-11-21T08:59:13;1.20;99.90
11764;DHT22;5939;56.522;14.950;2022-11-21T09:01:39;1.20;99.90
11764;DHT22;5939;56.522;14.950;2022-11-21T09:04:05;1.20;99.90
11764;DHT22;5939;56.522;14.950;2022-11-21T09:06:31;1.20;99.90
11764;DHT22;5939;56.522;14.950;2022-11-21T09:08:57;1.20;99.90
11764;DHT22;5939;56.522;14.950;2022-11-21T09:11:23;1.20;99.90
11764;DHT22;5939;56.522;14.950;2022-11-21T09:13:52;1.30;99.90
11764;DHT22;5939;56.522;14.950;2022-11-21T09:16:37;1.20;99.90
11764;DHT22;5939;56.522;14.950;2022-11-21T09:19:22;1.30;99.90
11764;DHT22;5939;56.522;14.950;2022-11-21T09:21:49;1.30;99.90
11764;DHT22;5939;56.522;14.950;2022-11-21T09:24:15;1.20;99.90
11764;DHT22;5939;56.522;14.950;2022-11-21T09:26:41;1.30;99.90
11764;DHT22;5939;56.522;14.950;2022-11-21T09:29:06;1.30;99.90
11764;DHT22;5939;56.522;14.950;2022-11-21T09:31:36;1.30;99.90
11764;DHT22;5939;56.522;14.950;2022-11-21T09:34:01;1.30;99.90
11764;DHT22;5939;56.522;14.950;2022-11-21T09:36:27;1.30;99.90
11764;DHT22;5939;56.522;14.950;2022-11-21T09:38:53;1.30;99.90
11764;DHT22;5939;56.522;14.950;2022-11-21T09:46:59;1.40;99.90
11764;DHT22;5939;56.522;14.950;2022-11-21T09:49:27;1.40;99.90
11764;DHT22;5939;56.522;14.950;2022-11-21T09:51:55;1.40;99.90
11764;DHT22;5939;56.522;14.950;2022-11-21T09:54:30;1.40;99.90
11764;DHT22;5939;56.522;14.950;2022-11-21T09:56:56;1.40;99.90
11764;DHT22;5939;56.522;14.950;2022-11-21T09:59:36;1.40;99.90
11764;DHT22;5939;56.522;14.950;2022-11-21T10:02:13;1.40;99.90
11764;DHT22;5939;56.522;14.950;2022-11-21T10:04:40;1.40;99.90
11764;DHT22;5939;56.522;14.950;2022-11-21T10:07:28;1.50;99.90
11764;DHT22;5939;56.522;14.950;2022-11-21T10:10:03;1.50;99.90
11764;DHT22;5939;56.522;14.950;2022-11-21T10:18:07;1.50;99.90
11764;DHT22;5939;56.522;14.950;2022-11-21T10:26:15;1.50;99.90
11764;DHT22;5939;56.522;14.950;2022-11-21T10:31:12;1.60;99.90
11764;DHT22;5939;56.522;14.950;2022-11-21T10:33:39;1.60;99.90
11764;DHT22;5939;56.522;14.950;2022-11-21T10:36:18;1.60;99.90
11764;DHT22;5939;56.522;14.950;2022-11-21T10:38:48;1.60;99.90
11764;DHT22;5939;56.522;14.950;2022-11-21T10:41:24;1.60;99.90
11764;DHT22;5939;56.522;14.950;2022-11-21T10:44:00;1.60;99.90
11764;DHT22;5939;56.522;14.950;2022-11-21T10:46:57;1.60;99.90
11764;DHT22;5939;56.522;14.950;2022-11-21T10:49:24;1.60;99.90
11764;DHT22;5939;56.522;14.950;2022-11-21T10:52:04;1.60;99.90
11764;DHT22;5939;56.522;14.950;2022-11-21T10:54:31;1.60;99.90
11764;DHT22;5939;56.522;14.950;2022-11-21T10:57:12;1.60;99.90
11764;DHT22;5939;56.522;14.950;2022-11-21T10:59:38;1.60;99.90
11764;DHT22;5939;56.522;14.950;2022-11-21T11:04:39;1.70;99.90
11764;DHT22;5939;56.522;14.950;2022-11-21T11:07:26;1.70;99.90
11764;DHT22;5939;56.522;14.950;2022-11-21T11:09:52;1.70;99.90
11764;DHT22;5939;56.522;14.950;2022-11-21T11:12:37;1.70;99.90
11764;DHT22;5939;56.522;14.950;2022-11-21T11:15:23;1.70;99.90
11764;DHT22;5939;56.522;14.950;2022-11-21T11:18:00;1.70;99.90
11764;DHT22;5939;56.522;14.950;2022-11-21T11:22:58;1.70;99.90
11764;DHT22;5939;56.522;14.950;2022-11-21T11:25:24;1.70;99.90
11764;DHT22;5939;56.522;14.950;2022-11-21T11:27:49;1.70;99.90
11764;DHT22;5939;56.522;14.950;2022-11-21T11:30:17;1.70;99.90
11764;DHT22;5939;56.522;14.950;2022-11-21T11:32:42;1.70;99.90
11764;DHT22;5939;56.522;14.950;2022-11-21T11:35:21;1.70;99.90
11764;DHT22;5939;56.522;14.950;2022-11-21T11:38:07;1.70;99.90
11764;DHT22;5939;56.522;14.950;2022-11-21T11:40:42;1.70;99.90
11764;DHT22;5939;56.522;14.950;2022-11-21T11:48:57;1.70;99.90
11764;DHT22;5939;56.522;14.950;2022-11-21T11:51:36;1.70;99.90
11764;DHT22;5939;56.522;14.950;2022-11-21T11:54:12;1.70;99.90
11764;DHT22;5939;56.522;14.950;2022-11-21T11:56:41;1.70;99.90
11764;DHT22;5939;56.522;14.950;2022-11-21T12:04:22;1.80;99.90
11764;DHT22;5939;56.522;14.950;2022-11-21T12:12:17;1.80;99.90
11764;DHT22;5939;56.522;14.950;2022-11-21T12:23:22;1.80;99.90
11764;DHT22;5939;56.522;14.950;2022-11-21T12:26:08;1.80;99.90
11764;DHT22;5939;56.522;14.950;2022-11-21T12:29:12;1.80;99.90
11764;DHT22;5939;56.522;14.950;2022-11-21T12:43:48;1.90;99.90
11764;DHT22;5939;56.522;14.950;2022-11-21T12:46:22;1.90;99.90
11764;DHT22;5939;56.522;14.950;2022-11-21T12:49:14;2.00;99.90
11764;DHT22;5939;56.522;14.950;2022-11-21T12:55:31;2.00;99.90
11764;DHT22;5939;56.522;14.950;2022-11-21T13:01:09;2.00;99.90
11764;DHT22;5939;56.522;14.950;2022-11-21T13:06:41;2.00;99.90
11764;DHT22;5939;56.522;14.950;2022-11-21T13:09:12;2.00;99.90
11764;DHT22;5939;56.522;14.950;2022-11-21T13:30:54;2.00;99.90
11764;DHT22;5939;56.522;14.950;2022-11-21T13:36:10;2.00;99.90
11764;DHT22;5939;56.522;14.950;2022-11-21T14:00:48;2.00;99.90
11764;DHT22;5939;56.522;14.950;2022-11-21T14:09:17;2.00;99.90
11764;DHT22;5939;56.522;14.950;2022-11-21T14:11:45;2.00;99.90
11764;DHT22;5939;56.522;14.950;2022-11-21T14:19:30;2.00;99.90
11764;DHT22;5939;56.522;14.950;2022-11-21T14:21:57;2.00;99.90
11764;DHT22;5939;56.522;14.950;2022-11-21T14:24:24;2.00;99.90
11764;DHT22;5939;56.522;14.950;2022-11-21T14:26:51;2.00;99.90
11764;DHT22;5939;56.522;14.950;2022-11-21T14:29:36;2.00;99.90
11764;DHT22;5939;56.522;14.950;2022-11-21T14:32:02;2.00;99.90
11764;DHT22;5939;56.522;14.950;2022-11-21T14:34:30;2.00;99.90
11764;DHT22;5939;56.522;14.950;2022-11-21T14:36:59;2.10;99.90
11764;DHT22;5939;56.522;14.950;2022-11-21T14:39:27;2.10;99.90
11764;DHT22;5939;56.522;14.950;2022-11-21T14:41:55;2.10;99.90
11764;DHT22;5939;56.522;14.950;2022-11-21T14:44:23;2.00;99.90
11764;DHT22;5939;56.522;14.950;2022-11-21T14:46:50;2.00;99.90
11764;DHT22;5939;56.522;14.950;2022-11-21T14:52:15;2.10;99.90
11764;DHT22;5939;56.522;14.950;2022-11-21T14:54:46;1.90;99.90
11764;DHT22;5939;56.522;14.950;2022-11-21T14:57:19;2.10;99.90
11764;DHT22;5939;56.522;14.950;2022-11-21T14:59:46;2.10;99.90
11764;DHT22;5939;56.522;14.950;2022-11-21T15:02:20;2.10;99.90
11764;DHT22;5939;56.522;14.950;2022-11-21T15:04:48;2.00;99.90
11764;DHT22;5939;56.522;14.950;2022-11-21T15:07:25;2.00;99.90
11764;DHT22;5939;56.522;14.950;2022-11-21T15:09:52;2.00;99.90
11764;DHT22;5939;56.522;14.950;2022-11-21T15:17:56;2.00;99.90
11764;DHT22;5939;56.522;14.950;2022-11-21T15:20:23;2.00;99.90
11764;DHT22;5939;56.522;14.950;2022-11-21T15:22:52;2.00;99.90
11764;DHT22;5939;56.522;14.950;2022-11-21T15:25:21;2.00;99.90
11764;DHT22;5939;56.522;14.950;2022-11-21T15:27:49;2.00;99.90
11764;DHT22;5939;56.522;14.950;2022-11-21T15:33:04;2.00;99.90
11764;DHT22;5939;56.522;14.950;2022-11-21T15:38:23;2.00;99.90
11764;DHT22;5939;56.522;14.950;2022-11-21T15:41:00;2.00;99.90
11764;DHT22;5939;56.522;14.950;2022-11-21T15:46:12;2.00;99.90
11764;DHT22;5939;56.522;14.950;2022-11-21T15:48:38;2.00;99.90
11764;DHT22;5939;56.522;14.950;2022-11-21T15:51:04;2.00;99.90
11764;DHT22;5939;56.522;14.950;2022-11-21T15:53:29;2.00;99.90
11764;DHT22;5939;56.522;14.950;2022-11-21T15:55:55;2.00;99.90
11764;DHT22;5939;56.522;14.950;2022-11-21T15:58:21;2.00;99.90
11764;DHT22;5939;56.522;14.950;2022-11-21T16:00:46;2.00;99.90
11764;DHT22;5939;56.522;14.950;2022-11-21T16:03:12;2.00;99.90
11764;DHT22;5939;56.522;14.950;2022-11-21T16:05:38;2.00;99.90
11764;DHT22;5939;56.522;14.950;2022-11-21T16:08:04;2.00;99.90
11764;DHT22;5939;56.522;14.950;2022-11-21T16:10:30;2.00;99.90
11764;DHT22;5939;56.522;14.950;2022-11-21T16:12:55;2.00;99.90
11764;DHT22;5939;56.522;14.950;2022-11-21T16:15:21;2.00;99.90
11764;DHT22;5939;56.522;14.950;2022-11-21T16:17:47;2.00;99.90
11764;DHT22;5939;56.522;14.950;2022-11-21T16:20:13;2.00;99.90
11764;DHT22;5939;56.522;14.950;2022-11-21T16:22:38;2.00;99.90
11764;DHT22;5939;56.522;14.950;2022-11-21T16:25:04;2.00;99.90
11764;DHT22;5939;56.522;14.950;2022-11-21T16:27:33;2.00;99.90
11764;DHT22;5939;56.522;14.950;2022-11-21T16:29:58;3.10;99.90
11764;DHT22;5939;56.522;14.950;2022-11-21T16:32:24;2.00;99.90
11764;DHT22;5939;56.522;14.950;2022-11-21T16:34:50;2.00;99.90
11764;DHT22;5939;56.522;14.950;2022-11-21T16:37:16;2.00;99.90
11764;DHT22;5939;56.522;14.950;2022-11-21T16:39:42;2.00;99.90
11764;DHT22;5939;56.522;14.950;2022-11-21T16:42:10;2.00;99.90
11764;DHT22;5939;56.522;14.950;2022-11-21T16:44:36;2.00;99.90
11764;DHT22;5939;56.522;14.950;2022-11-21T16:47:02;2.00;99.90
11764;DHT22;5939;56.522;14.950;2022-11-21T16:49:27;2.00;99.90
11764;DHT22;5939;56.522;14.950;2022-11-21T16:51:53;2.00;99.90
11764;DHT22;5939;56.522;14.950;2022-11-21T16:54:20;2.00;99.90
11764;DHT22;5939;56.522;14.950;2022-11-21T16:56:46;1.90;99.90
11764;DHT22;5939;56.522;14.950;2022-11-21T16:59:11;2.00;99.90
11764;DHT22;5939;56.522;14.950;2022-11-21T17:01:37;1.90;99.90
11764;DHT22;5939;56.522;14.950;2022-11-21T17:04:03;1.90;99.90
11764;DHT22;5939;56.522;14.950;2022-11-21T17:06:30;1.50;99.90
11764;DHT22;5939;56.522;14.950;2022-11-21T17:08:57;1.90;99.90
11764;DHT22;5939;56.522;14.950;2022-11-21T17:11:24;1.90;99.90
11764;DHT22;5939;56.522;14.950;2022-11-21T17:13:54;1.90;99.90
11764;DHT22;5939;56.522;14.950;2022-11-21T17:16:21;1.90;99.90
11764;DHT22;5939;56.522;14.950;2022-11-21T17:18:54;1.90;99.90
11764;DHT22;5939;56.522;14.950;2022-11-21T17:21:21;1.90;99.90
11764;DHT22;5939;56.522;14.950;2022-11-21T17:23:46;1.90;99.90
11764;DHT22;5939;56.522;14.950;2022-11-21T17:26:17;1.90;99.90
11764;DHT22;5939;56.522;14.950;2022-11-21T17:28:43;1.90;99.90
11764;DHT22;5939;56.522;14.950;2022-11-21T17:31:11;1.90;99.90
11764;DHT22;5939;56.522;14.950;2022-11-21T17:33:37;1.90;99.90
11764;DHT22;5939;56.522;14.950;2022-11-21T17:36:08;1.90;99.90
11764;DHT22;5939;56.522;14.950;2022-11-21T17:38:35;1.90;99.90
11764;DHT22;5939;56.522;14.950;2022-11-21T17:41:06;1.90;99.90
11764;DHT22;5939;56.522;14.950;2022-11-21T17:43:32;1.90;99.90
11764;DHT22;5939;56.522;14.950;2022-11-21T17:46:06;1.90;99.90
11764;DHT22;5939;56.522;14.950;2022-11-21T17:48:33;1.90;99.90
11764;DHT22;5939;56.522;14.950;2022-11-21T17:51:12;1.90;99.90
11764;DHT22;5939;56.522;14.950;2022-11-21T17:53:40;1.90;99.90
11764;DHT22;5939;56.522;14.950;2022-11-21T17:56:07;1.90;99.90
11764;DHT22;5939;56.522;14.950;2022-11-21T17:58:34;1.90;99.90
11764;DHT22;5939;56.522;14.950;2022-11-21T18:01:04;1.90;99.90
11764;DHT22;5939;56.522;14.950;2022-11-21T18:03:30;1.90;99.90
11764;DHT22;5939;56.522;14.950;2022-11-21T18:06:05;1.90;99.90
11764;DHT22;5939;56.522;14.950;2022-11-21T18:08:35;1.90;99.90
11764;DHT22;5939;56.522;14.950;2022-11-21T18:11:02;1.90;99.90
11764;DHT22;5939;56.522;14.950;2022-11-21T18:13:29;1.90;99.90
11764;DHT22;5939;56.522;14.950;2022-11-21T18:15:59;1.90;99.90
11764;DHT22;5939;56.522;14.950;2022-11-21T18:18:25;1.90;99.90
11764;DHT22;5939;56.522;14.950;2022-11-21T18:20:51;1.90;99.90
11764;DHT22;5939;56.522;14.950;2022-11-21T18:23:16;1.90;99.90
11764;DHT22;5939;56.522;14.950;2022-11-21T18:25:42;1.90;99.90
11764;DHT22;5939;56.522;14.950;2022-11-21T18:28:07;1.90;99.90
11764;DHT22;5939;56.522;14.950;2022-11-21T18:30:33;1.90;99.90